| time (UTC) | temp F | wind direction | speed MPH | gust MPH | rain 1hr in | rain 24hr in | rain mn in | humidity % | barometer mb |
| 20260831110017 | 77 | 0.0 | 2.0 | 0.00 | 0.01 | 0.00 | 63 | 1012.8 | |
| 20260831105017 | 77 | 0.0 | 1.0 | 0.00 | 0.01 | 0.00 | 63 | 1012.6 | |
| 20260831104037 | 77 | 0 | 1.0 | 3.0 | 0.00 | 0.01 | 0.00 | 63 | 1012.4 |
| 20260831103017 | 77 | 0 | 1.0 | 2.0 | 0.00 | 0.01 | 0.00 | 62 | 1012.5 |
| 20260831102017 | 77 | 0 | 1.0 | 3.0 | 0.00 | 0.01 | 0.00 | 62 | 1012.5 |
| 20260831101017 | 77 | 0 | 1.0 | 3.0 | 0.00 | 0.02 | 0.00 | 62 | 1012.4 |
| 20260831100017 | 77 | 0 | 1.0 | 3.0 | 0.00 | 0.02 | 0.00 | 63 | 1012.5 |
| 20260831095017 | 76 | 0 | 1.0 | 3.0 | 0.00 | 0.02 | 0.00 | 65 | 1012.5 |
| 20260831094017 | 76 | 0 | 1.0 | 4.0 | 0.00 | 0.02 | 0.00 | 66 | 1012.6 |
| 20260831093037 | 76 | 0 | 1.0 | 2.0 | 0.00 | 0.02 | 0.00 | 67 | 1012.9 |
| 20260831092017 | 76 | 0 | 1.0 | 2.0 | 0.00 | 0.02 | 0.00 | 68 | 1013.0 |
| 20260831091017 | 76 | 0 | 1.0 | 2.0 | 0.00 | 0.02 | 0.00 | 68 | 1013.1 |
| 20260831090037 | 76 | 0 | 1.0 | 3.0 | 0.00 | 0.02 | 0.00 | 69 | 1012.9 |
| 20260831085017 | 76 | 0 | 1.0 | 4.0 | 0.00 | 0.02 | 0.00 | 69 | 1012.9 |
| 20260831084036 | 76 | 0 | 1.0 | 4.0 | 0.00 | 0.02 | 0.00 | 72 | 1013.0 |
| 20260831083017 | 75 | 0 | 1.0 | 4.0 | 0.00 | 0.02 | 0.00 | 73 | 1013.0 |
| 20260831082017 | 75 | 0 | 1.0 | 5.0 | 0.00 | 0.02 | 0.00 | 75 | 1013.0 |
| 20260831081447 | 75 | 0 | 2.0 | 7.0 | 0.00 | 0.02 | 0.00 | 75 | 1013.0 |
| 20260831080516 | 75 | 0 | 1.0 | 4.0 | 0.00 | 0.02 | 0.00 | 75 | 1013.2 |
| 20260831075536 | 75 | 0 | 1.0 | 4.0 | 0.00 | 0.02 | 0.00 | 74 | 1013.3 |
| 20260831074517 | 76 | 0 | 2.0 | 5.0 | 0.00 | 0.02 | 0.00 | 73 | 1013.4 |
| 20260831073517 | 77 | 0 | 2.0 | 10.0 | 0.00 | 0.02 | 0.00 | 70 | 1013.3 |
| 20260831072517 | 78 | 0 | 5.0 | 16.0 | 0.00 | 0.02 | 0.00 | 69 | 1013.3 |
| 20260831071516 | 79 | 0 | 3.0 | 9.0 | 0.00 | 0.02 | 0.00 | 64 | 1012.4 |
| 20260831070516 | 79 | 0 | 4.0 | 8.0 | 0.01 | 0.02 | 0.00 | 65 | 1012.3 |
| 20260831065516 | 80 | 0 | 4.0 | 11.0 | 0.01 | 0.02 | 0.02 | 63 | 1012.3 |
| 20260831064516 | 79 | 0 | 4.0 | 10.0 | 0.01 | 0.06 | 0.02 | 66 | 1012.6 |
| 20260831063516 | 81 | 0 | 3.0 | 8.0 | 0.01 | 0.09 | 0.02 | 63 | 1012.9 |
| 20260831062516 | 81 | 0 | 2.0 | 4.0 | 0.01 | 0.12 | 0.02 | 59 | 1012.1 |
| 20260831061516 | 81 | 0 | 3.0 | 7.0 | 0.01 | 0.20 | 0.02 | 62 | 1011.5 |
| 20260831060536 | 83 | 0 | 5.0 | 13.0 | 0.00 | 0.19 | 0.01 | 57 | 1011.7 |
| 20260831055516 | 83 | 0 | 5.0 | 14.0 | 0.00 | 0.19 | 0.01 | 54 | 1011.6 |
| 20260831054536 | 82 | 0 | 6.0 | 17.0 | 0.00 | 0.19 | 0.01 | 54 | 1011.9 |
| 20260831053536 | 81 | 0 | 3.0 | 8.0 | 0.00 | 0.19 | 0.01 | 55 | 1011.9 |
| 20260831052516 | 81 | 0 | 3.0 | 10.0 | 0.00 | 0.19 | 0.01 | 60 | 1011.7 |
| 20260831051516 | 83 | 0 | 3.0 | 8.0 | 0.00 | 0.19 | 0.01 | 60 | 1012.0 |
| 20260831050516 | 85 | 0 | 4.0 | 11.0 | 0.00 | 0.19 | 0.01 | 55 | 1012.3 |
| 20260831045536 | 87 | 0 | 3.0 | 9.0 | 0.00 | 0.19 | 0.01 | 47 | 1012.0 |
| 20260831044536 | 89 | 0 | 5.0 | 14.0 | 0.00 | 0.19 | 0.01 | 46 | 1011.8 |
| 20260831043535 | 90 | 0 | 4.0 | 11.0 | 0.00 | 0.19 | 0.01 | 44 | 1011.4 |
| 20260831042515 | 92 | 0 | 6.0 | 12.0 | 0.00 | 0.19 | 0.01 | 41 | 1011.3 |
| 20260831041535 | 94 | 0 | 1.0 | 3.0 | 0.00 | 0.19 | 0.01 | 36 | 1011.0 |
| 20260831040515 | 95 | 0.0 | 0.0 | 0.00 | 0.19 | 0.01 | 37 | 1010.9 | |
| 20260831035516 | 95 | 0.0 | 0.0 | 0.00 | 0.19 | 0.01 | 36 | 1011.0 | |
| 20260831034515 | 95 | 0.0 | 1.0 | 0.00 | 0.19 | 0.01 | 35 | 1010.8 | |
| 20260831033518 | 95 | 0.0 | 1.0 | 0.00 | 0.19 | 0.01 | 36 | 1010.7 | |
| 20260831032537 | 95 | 0.0 | 1.0 | 0.00 | 0.19 | 0.01 | 35 | 1010.7 | |
| 20260831031518 | 95 | 0.0 | 1.0 | 0.00 | 0.19 | 0.01 | 35 | 1010.5 | |
| 20260831030538 | 95 | 0.0 | 1.0 | 0.00 | 0.19 | 0.01 | 35 | 1010.2 | |
| 20260831025538 | 95 | 0.0 | 1.0 | 0.00 | 0.19 | 0.01 | 35 | 1010.1 | |
| 20260831024517 | 95 | 0.0 | 1.0 | 0.00 | 0.19 | 0.01 | 35 | 1009.8 | |
| 20260831023517 | 95 | 0.0 | 2.0 | 0.00 | 0.19 | 0.01 | 35 | 1009.5 | |
| 20260831022517 | 95 | 0.0 | 1.0 | 0.00 | 0.19 | 0.01 | 36 | 1009.5 | |
| 20260831021517 | 96 | 0.0 | 0.0 | 0.00 | 0.19 | 0.01 | 35 | 1009.4 | |
| 20260831020517 | 96 | 0.0 | 1.0 | 0.00 | 0.19 | 0.01 | 35 | 1009.1 | |
| 20260831015517 | 97 | 0.0 | 1.0 | 0.00 | 0.19 | 0.01 | 35 | 1008.9 | |
| 20260831014537 | 97 | 0.0 | 1.0 | 0.00 | 0.19 | 0.01 | 34 | 1008.8 | |
| 20260831013518 | 97 | 0.0 | 2.0 | 0.00 | 0.19 | 0.01 | 33 | 1008.7 | |
| 20260831012517 | 98 | 0 | 2.0 | 4.0 | 0.00 | 0.19 | 0.01 | 32 | 1008.6 |
| 20260831011517 | 98 | 0.0 | 1.0 | 0.00 | 0.19 | 0.01 | 33 | 1008.9 | |
| 20260831010517 | 98 | 0.0 | 2.0 | 0.00 | 0.19 | 0.01 | 32 | 1008.8 | |
| 20260831005517 | 99 | 0.0 | 2.0 | 0.00 | 0.19 | 0.01 | 31 | 1008.9 | |
| 20260831004537 | 99 | 0 | 1.0 | 3.0 | 0.00 | 0.19 | 0.01 | 32 | 1008.9 |
| 20260831003517 | 99 | 203 | 1.0 | 4.0 | 0.00 | 0.19 | 0.01 | 31 | 1008.9 |
| 20260831002518 | 100 | 0 | 1.0 | 2.0 | 0.00 | 0.19 | 0.01 | 31 | 1008.9 |
| 20260831001517 | 100 | 0.0 | 2.0 | 0.00 | 0.19 | 0.01 | 31 | 1009.0 | |
| 20260831000517 | 100 | 180 | 2.0 | 5.0 | 0.00 | 0.19 | 0.01 | 31 | 1009.2 |
| 20260830235517 | 100 | 0.0 | 2.0 | 0.00 | 0.19 | 0.01 | 30 | 1009.4 | |
| 20260830234518 | 101 | 180 | 1.0 | 5.0 | 0.00 | 0.19 | 0.01 | 30 | 1009.5 |
| 20260830233517 | 101 | 270 | 1.0 | 5.0 | 0.00 | 0.19 | 0.01 | 29 | 1009.6 |
| 20260830232517 | 102 | 203 | 1.0 | 5.0 | 0.00 | 0.19 | 0.01 | 29 | 1009.8 |
| 20260830231518 | 103 | 203 | 1.0 | 4.0 | 0.00 | 0.19 | 0.01 | 28 | 1009.8 |
| 20260830230518 | 103 | 203 | 1.0 | 3.0 | 0.00 | 0.19 | 0.01 | 28 | 1010.1 |
| 20260830225517 | 103 | 0.0 | 2.0 | 0.00 | 0.19 | 0.01 | 30 | 1010.2 | |
| 20260830224516 | 102 | 180 | 2.0 | 4.0 | 0.00 | 0.19 | 0.01 | 30 | 1010.4 |
| 20260830223517 | 103 | 180 | 1.0 | 4.0 | 0.00 | 0.19 | 0.01 | 28 | 1010.5 |
| 20260830222537 | 103 | 180 | 1.0 | 2.0 | 0.00 | 0.19 | 0.01 | 28 | 1010.6 |
| 20260830221517 | 102 | 248 | 1.0 | 5.0 | 0.00 | 0.19 | 0.01 | 28 | 1010.8 |
| 20260830220537 | 102 | 180 | 1.0 | 5.0 | 0.00 | 0.19 | 0.01 | 29 | 1011.0 |
| 20260830215516 | 100 | 225 | 1.0 | 5.0 | 0.00 | 0.19 | 0.01 | 32 | 1011.1 |
| 20260830214517 | 100 | 180 | 2.0 | 4.0 | 0.00 | 0.19 | 0.01 | 30 | 1011.3 |
| 20260830213517 | 100 | 158 | 3.0 | 8.0 | 0.00 | 0.19 | 0.01 | 30 | 1011.5 |
| 20260830212517 | 101 | 225 | 2.0 | 6.0 | 0.00 | 0.19 | 0.01 | 30 | 1011.9 |
| 20260830211516 | 101 | 248 | 1.0 | 3.0 | 0.00 | 0.19 | 0.01 | 32 | 1012.1 |
| 20260830210516 | 101 | 180 | 2.0 | 5.0 | 0.00 | 0.19 | 0.01 | 30 | 1012.1 |
| 20260830205517 | 101 | 225 | 1.0 | 4.0 | 0.00 | 0.19 | 0.01 | 33 | 1012.2 |
| 20260830204517 | 101 | 203 | 1.0 | 5.0 | 0.00 | 0.19 | 0.01 | 31 | 1012.4 |
| 20260830203536 | 100 | 203 | 1.0 | 3.0 | 0.00 | 0.19 | 0.01 | 33 | 1012.4 |
| 20260830202517 | 98 | 203 | 2.0 | 6.0 | 0.00 | 0.19 | 0.01 | 34 | 1012.4 |
| 20260830201516 | 98 | 180 | 4.0 | 9.0 | 0.00 | 0.19 | 0.01 | 34 | 1012.6 |
| 20260830200516 | 98 | 158 | 4.0 | 7.0 | 0.00 | 0.19 | 0.01 | 33 | 1012.6 |
| 20260830195516 | 99 | 203 | 1.0 | 3.0 | 0.00 | 0.19 | 0.01 | 33 | 1012.6 |
| 20260830194536 | 98 | 180 | 1.0 | 3.0 | 0.00 | 0.19 | 0.01 | 35 | 1012.8 |
| 20260830193516 | 97 | 113 | 2.0 | 5.0 | 0.00 | 0.19 | 0.01 | 36 | 1012.9 |
| 20260830192517 | 98 | 180 | 3.0 | 6.0 | 0.00 | 0.19 | 0.01 | 33 | 1013.1 |
| 20260830191516 | 97 | 0 | 2.0 | 6.0 | 0.00 | 0.19 | 0.01 | 36 | 1013.2 |
| 20260830190516 | 96 | 0 | 2.0 | 5.0 | 0.00 | 0.19 | 0.01 | 36 | 1013.5 |
| 20260830185516 | 96 | 0 | 3.0 | 8.0 | 0.00 | 0.19 | 0.01 | 36 | 1013.5 |
| 20260830184536 | 96 | 0 | 3.0 | 6.0 | 0.00 | 0.19 | 0.01 | 36 | 1013.8 |
| 20260830183516 | 95 | 0 | 3.0 | 6.0 | 0.00 | 0.19 | 0.01 | 37 | 1014.6 |
| 20260830182516 | 95 | 0 | 2.0 | 4.0 | 0.00 | 0.19 | 0.01 | 37 | 1014.7 |
| 20260830181516 | 95 | 0 | 2.0 | 5.0 | 0.00 | 0.19 | 0.01 | 37 | 1014.8 |
| 20260830180516 | 93 | 0 | 3.0 | 7.0 | 0.00 | 0.19 | 0.01 | 40 | 1014.8 |
| 20260830175517 | 93 | 0 | 5.0 | 9.0 | 0.00 | 0.19 | 0.01 | 39 | 1014.8 |
| 20260830174536 | 93 | 0 | 4.0 | 8.0 | 0.00 | 0.19 | 0.01 | 39 | 1014.9 |
| 20260830173516 | 93 | 0 | 3.0 | 7.0 | 0.00 | 0.19 | 0.01 | 39 | 1015.1 |
| 20260830172516 | 92 | 0 | 3.0 | 6.0 | 0.00 | 0.19 | 0.01 | 40 | 1015.0 |
| 20260830171516 | 92 | 0 | 4.0 | 7.0 | 0.00 | 0.19 | 0.01 | 41 | 1015.1 |
| 20260830170516 | 92 | 0 | 4.0 | 8.0 | 0.00 | 0.19 | 0.01 | 41 | 1015.3 |
| 20260830165516 | 92 | 0 | 4.0 | 10.0 | 0.00 | 0.19 | 0.01 | 40 | 1015.1 |
| 20260830164516 | 91 | 0 | 4.0 | 8.0 | 0.00 | 0.19 | 0.01 | 41 | 1015.0 |
| 20260830163516 | 91 | 0 | 4.0 | 10.0 | 0.00 | 0.19 | 0.01 | 41 | 1015.3 |
| 20260830162516 | 90 | 0 | 4.0 | 8.0 | 0.00 | 0.19 | 0.01 | 42 | 1015.0 |
| 20260830161515 | 89 | 0 | 4.0 | 11.0 | 0.00 | 0.19 | 0.01 | 43 | 1015.1 |
| 20260830160516 | 88 | 0 | 4.0 | 9.0 | 0.00 | 0.19 | 0.01 | 44 | 1015.2 |
| 20260830155516 | 89 | 0 | 4.0 | 8.0 | 0.00 | 0.19 | 0.01 | 43 | 1015.0 |
| 20260830154516 | 89 | 180 | 4.0 | 10.0 | 0.00 | 0.19 | 0.01 | 44 | 1015.0 |
| 20260830153536 | 89 | 135 | 1.0 | 4.0 | 0.00 | 0.19 | 0.01 | 46 | 1015.3 |
| 20260830152537 | 88 | 135 | 2.0 | 5.0 | 0.00 | 0.19 | 0.01 | 47 | 1015.2 |
| 20260830151515 | 88 | 90 | 1.0 | 3.0 | 0.00 | 0.19 | 0.01 | 47 | 1015.2 |
| 20260830150515 | 88 | 90 | 1.0 | 3.0 | 0.00 | 0.19 | 0.01 | 49 | 1015.3 |
| 20260830145515 | 86 | 0.0 | 1.0 | 0.00 | 0.19 | 0.01 | 50 | 1015.2 | |
| 20260830144535 | 84 | 0.0 | 1.0 | 0.00 | 0.19 | 0.01 | 53 | 1015.1 | |
| 20260830143515 | 83 | 0.0 | 1.0 | 0.00 | 0.19 | 0.01 | 54 | 1015.1 | |
| 20260830142516 | 83 | 0.0 | 1.0 | 0.00 | 0.19 | 0.01 | 56 | 1015.1 | |
| 20260830141515 | 82 | 0.0 | 0.0 | 0.00 | 0.19 | 0.01 | 59 | 1015.0 | |
| 20260830140515 | 82 | 0.0 | 0.0 | 0.00 | 0.19 | 0.01 | 62 | 1015.1 | |
| 20260830135515 | 82 | 0.0 | 1.0 | 0.00 | 0.19 | 0.01 | 60 | 1014.8 | |
| 20260830134515 | 81 | 0.0 | 0.0 | 0.00 | 0.19 | 0.01 | 63 | 1014.5 | |
| 20260830133516 | 80 | 0.0 | 0.0 | 0.00 | 0.19 | 0.01 | 63 | 1014.7 | |
| 20260830132517 | 80 | 0.0 | 0.0 | 0.00 | 0.19 | 0.01 | 63 | 1014.4 | |
| 20260830131517 | 80 | 0.0 | 1.0 | 0.00 | 0.19 | 0.01 | 64 | 1014.1 | |
| 20260830130518 | 79 | 0.0 | 1.0 | 0.00 | 0.19 | 0.01 | 65 | 1013.9 | |
| 20260830125517 | 79 | 0.0 | 1.0 | 0.00 | 0.19 | 0.01 | 65 | 1013.9 | |
| 20260830124518 | 79 | 0.0 | 0.0 | 0.00 | 0.19 | 0.01 | 66 | 1013.8 | |
| 20260830123517 | 79 | 0.0 | 0.0 | 0.00 | 0.19 | 0.01 | 66 | 1013.6 | |
| 20260830122558 | 79 | 0.0 | 1.0 | 0.00 | 0.19 | 0.01 | 66 | 1013.4 | |
| 20260830121517 | 79 | 0.0 | 1.0 | 0.00 | 0.19 | 0.01 | 66 | 1013.2 | |
| 20260830120517 | 80 | 0.0 | 1.0 | 0.00 | 0.19 | 0.01 | 66 | 1013.3 | |
| 20260830115537 | 80 | 0.0 | 1.0 | 0.00 | 0.19 | 0.01 | 65 | 1013.4 | |
| 20260830114517 | 80 | 0.0 | 0.0 | 0.00 | 0.19 | 0.01 | 64 | 1013.3 | |
| 20260830113517 | 81 | 0.0 | 1.0 | 0.00 | 0.19 | 0.01 | 62 | 1013.4 | |
| 20260830112537 | 81 | 0.0 | 0.0 | 0.00 | 0.19 | 0.01 | 62 | 1013.3 | |
| 20260830111518 | 81 | 0.0 | 1.0 | 0.01 | 0.19 | 0.01 | 60 | 1013.1 | |
| 20260830110517 | 82 | 0 | 1.0 | 3.0 | 0.01 | 0.19 | 0.01 | 59 | 1013.2 |